Schuyler Falls, NY (12985)

10:47 AM EDT on July 25, 2016 (GMT -0400)
APRSWXNET | | Change Station

Elev 820 ft 44.64 °N, 73.74 °W | Updated 28 minutes ago

Scattered Clouds
Scattered Clouds
70 °F
Feels Like 70 °F
N
0
Wind Variable Wind from SSW
Gusts 0.0 mph

Today
High -- | Low -- °F
--% Chance of Precip.
Yesterday
High -- | Low -- °F
Precip. -- in
Pressure 29.87 in
Visibility 10.0 miles
Clouds Scattered Clouds 8500 ft
Dew Point 67 °F
Humidity 89%
Rainfall in
Snow Depth Not available.
5:34 AM 8:27 PM
Waning Gibbous, 65% visible
METAR KPBG 251353Z AUTO 14004KT 10SM SCT085 22/18 A2987 RMK AO2 SLP115 T02220178
Pressure 29.87 in
Visibility 10.0 miles
Clouds Scattered Clouds 8500 ft
Dew Point 67 °F
Humidity 89%
Rainfall in
Snow Depth Not available.
5:34 AM 8:27 PM
Waning Gibbous, 65% visible
METAR KPBG 251353Z AUTO 14004KT 10SM SCT085 22/18 A2987 RMK AO2 SLP115 T02220178

10-Day Weather Forecast

Almanac

Astronomy

Jul. 25, 2016 Rise Set
Actual Time
Civil Twilight
Nautical Twilight
Astronomical Twilight
Moon
Length of Visible Light
Length of Day
Tomorrow will be .
, % of the Moon is Illuminated

Today's Extremes

State Highs State Lows

Community

WunderPhotos

Upload Photos

1,927,305 photos uploaded!

WunderBlog® & News

Nearby

Air Quality

  Air Quality AQ Index Pollutant
Not available.

Snow Depth

Station Depth Elevation

Earthquake Activity

City Distance Mag. Time & Date
Minimum magnitude displayed is 2.5.

Coastal Water Temperatures

Place Temperature

Stations

Nearby Weather Stations

Station Location Temp. Windchill Dew Point Humidity Wind Precip. Elev Updated Type
                   

Watches & Warnings

There are currently no watches in effect.